Terminal Aerodrome Forecast
Issued by NWS

Home | Current Version | Previous Version | Text Only | Print | Product List | Glossary On
Versions: 1 2 3 4 5 6 7 8 9 10 11 12 13 14 15 16 17 18 19 20 21 22 23 24
000
FTUS41 KILN 261800 AAA
TAFLUK
TAF AMD
KLUK 261822Z 2618/2718 01008KT P6SM -RA VCSH BKN020 OVC025
     FM262300 33004KT P6SM OVC025
     FM270300 34004KT P6SM SCT035 BKN150
     FM271200 34007KT P6SM VCSH BKN025
     FM271700 34010G20KT P6SM VCSH BKN035=

USA.gov is the U.S. government's official web portal to all federal, state and local government web resources and services.